sensor_id;sensor_type;location;lat;lon;timestamp;pressure;altitude;pressure_sealevel;temperature;humidity
18850;BME280;4989;48.772;9.154;2023-12-04T00:04:45;98158.47;;;-2.45;99.48
18850;BME280;4989;48.772;9.154;2023-12-04T00:09:47;98151.50;;;-2.13;97.89
18850;BME280;4989;48.772;9.154;2023-12-04T00:14:50;98149.59;;;-1.88;93.97
18850;BME280;4989;48.772;9.154;2023-12-04T00:19:53;98139.53;;;-2.07;92.83
18850;BME280;4989;48.772;9.154;2023-12-04T00:24:55;98123.78;;;-2.24;93.56
18850;BME280;4989;48.772;9.154;2023-12-04T00:29:58;98116.91;;;-2.13;92.70
18850;BME280;4989;48.772;9.154;2023-12-04T00:35:01;98106.34;;;-2.10;93.27
18850;BME280;4989;48.772;9.154;2023-12-04T00:40:05;98092.69;;;-1.83;90.84
18850;BME280;4989;48.772;9.154;2023-12-04T00:45:08;98091.78;;;-1.88;90.53
18850;BME280;4989;48.772;9.154;2023-12-04T00:50:11;98094.63;;;-2.09;91.69
18850;BME280;4989;48.772;9.154;2023-12-04T00:55:14;98094.28;;;-2.32;94.99
18850;BME280;4989;48.772;9.154;2023-12-04T01:00:17;98085.72;;;-2.74;99.39
18850;BME280;4989;48.772;9.154;2023-12-04T01:05:19;98083.81;;;-2.98;100.00
18850;BME280;4989;48.772;9.154;2023-12-04T01:10:22;98073.09;;;-2.65;99.02
18850;BME280;4989;48.772;9.154;2023-12-04T01:15:29;98079.66;;;-2.25;96.88
18850;BME280;4989;48.772;9.154;2023-12-04T01:20:31;98080.97;;;-2.56;96.96
18850;BME280;4989;48.772;9.154;2023-12-04T01:25:35;98074.81;;;-3.06;100.00
18850;BME280;4989;48.772;9.154;2023-12-04T01:30:38;98067.84;;;-2.98;98.78
18850;BME280;4989;48.772;9.154;2023-12-04T01:35:41;98058.47;;;-2.59;97.32
18850;BME280;4989;48.772;9.154;2023-12-04T01:40:43;98050.84;;;-2.36;92.31
18850;BME280;4989;48.772;9.154;2023-12-04T01:45:46;98047.16;;;-2.31;91.45
18850;BME280;4989;48.772;9.154;2023-12-04T01:50:49;98038.84;;;-2.29;90.55
18850;BME280;4989;48.772;9.154;2023-12-04T01:55:52;98040.19;;;-2.36;90.67
18850;BME280;4989;48.772;9.154;2023-12-04T02:00:55;98036.41;;;-2.35;91.56
18850;BME280;4989;48.772;9.154;2023-12-04T02:06:00;98040.59;;;-2.21;89.32
18850;BME280;4989;48.772;9.154;2023-12-04T02:11:05;98049.53;;;-2.54;90.80
18850;BME280;4989;48.772;9.154;2023-12-04T02:16:10;98038.81;;;-3.03;95.97
18850;BME280;4989;48.772;9.154;2023-12-04T02:21:15;98028.81;;;-3.31;99.86
18850;BME280;4989;48.772;9.154;2023-12-04T02:26:22;98011.72;;;-3.42;100.00
18850;BME280;4989;48.772;9.154;2023-12-04T02:31:27;98009.78;;;-3.33;100.00
18850;BME280;4989;48.772;9.154;2023-12-04T02:36:30;98013.13;;;-3.24;100.00
18850;BME280;4989;48.772;9.154;2023-12-04T02:41:34;98026.38;;;-3.36;100.00
18850;BME280;4989;48.772;9.154;2023-12-04T02:46:37;98018.16;;;-3.43;100.00
18850;BME280;4989;48.772;9.154;2023-12-04T02:51:43;98010.06;;;-3.47;100.00
18850;BME280;4989;48.772;9.154;2023-12-04T02:56:45;97984.59;;;-3.60;100.00
18850;BME280;4989;48.772;9.154;2023-12-04T03:01:48;97975.84;;;-3.48;100.00
18850;BME280;4989;48.772;9.154;2023-12-04T03:06:51;97964.38;;;-3.28;99.90
18850;BME280;4989;48.772;9.154;2023-12-04T03:11:53;97960.38;;;-3.34;100.00
18850;BME280;4989;48.772;9.154;2023-12-04T03:16:56;97949.28;;;-3.48;100.00
18850;BME280;4989;48.772;9.154;2023-12-04T03:22:00;97934.50;;;-3.00;98.55
18850;BME280;4989;48.772;9.154;2023-12-04T03:27:03;97938.06;;;-3.20;99.13
18850;BME280;4989;48.772;9.154;2023-12-04T03:32:06;97922.97;;;-3.41;100.00
18850;BME280;4989;48.772;9.154;2023-12-04T03:37:09;97922.78;;;-2.99;98.29
18850;BME280;4989;48.772;9.154;2023-12-04T03:42:12;97900.81;;;-2.71;95.15
18850;BME280;4989;48.772;9.154;2023-12-04T03:47:14;97886.59;;;-2.51;92.26
18850;BME280;4989;48.772;9.154;2023-12-04T03:52:17;97880.81;;;-2.53;90.32
18850;BME280;4989;48.772;9.154;2023-12-04T03:57:20;97885.75;;;-2.80;92.53
18850;BME280;4989;48.772;9.154;2023-12-04T04:02:22;97885.53;;;-2.74;94.04
18850;BME280;4989;48.772;9.154;2023-12-04T04:07:25;97889.28;;;-2.76;92.31
18850;BME280;4989;48.772;9.154;2023-12-04T04:12:29;97885.44;;;-2.78;93.78
18850;BME280;4989;48.772;9.154;2023-12-04T04:17:32;97880.50;;;-2.64;92.32
18850;BME280;4989;48.772;9.154;2023-12-04T04:22:36;97876.38;;;-2.49;91.16
18850;BME280;4989;48.772;9.154;2023-12-04T04:27:40;97886.31;;;-2.46;90.18
18850;BME280;4989;48.772;9.154;2023-12-04T04:32:43;97880.28;;;-3.24;97.54
18850;BME280;4989;48.772;9.154;2023-12-04T04:37:45;97875.16;;;-3.16;95.92
18850;BME280;4989;48.772;9.154;2023-12-04T04:42:51;97874.63;;;-3.34;97.82
18850;BME280;4989;48.772;9.154;2023-12-04T04:47:54;97875.59;;;-3.39;99.67
18850;BME280;4989;48.772;9.154;2023-12-04T04:52:56;97879.47;;;-3.24;98.32
18850;BME280;4989;48.772;9.154;2023-12-04T04:57:59;97872.16;;;-3.39;99.71
18850;BME280;4989;48.772;9.154;2023-12-04T05:03:02;97870.97;;;-3.30;98.03
18850;BME280;4989;48.772;9.154;2023-12-04T05:08:05;97861.19;;;-3.01;95.66
18850;BME280;4989;48.772;9.154;2023-12-04T05:13:08;97847.91;;;-3.01;95.10
18850;BME280;4989;48.772;9.154;2023-12-04T05:18:10;97834.81;;;-2.94;94.67
18850;BME280;4989;48.772;9.154;2023-12-04T05:23:13;97820.81;;;-2.79;93.64
18850;BME280;4989;48.772;9.154;2023-12-04T05:28:16;97824.31;;;-3.03;95.45
18850;BME280;4989;48.772;9.154;2023-12-04T05:33:19;97812.00;;;-2.95;97.34
18850;BME280;4989;48.772;9.154;2023-12-04T05:38:22;97808.22;;;-2.94;96.79
18850;BME280;4989;48.772;9.154;2023-12-04T05:43:24;97798.94;;;-2.60;94.82
18850;BME280;4989;48.772;9.154;2023-12-04T05:48:27;97795.13;;;-2.74;95.08
18850;BME280;4989;48.772;9.154;2023-12-04T05:53:30;97800.53;;;-2.43;93.11
18850;BME280;4989;48.772;9.154;2023-12-04T05:58:33;97794.84;;;-2.57;92.08
18850;BME280;4989;48.772;9.154;2023-12-04T06:03:36;97799.06;;;-2.96;93.98
18850;BME280;4989;48.772;9.154;2023-12-04T06:08:39;97798.53;;;-3.02;95.37
18850;BME280;4989;48.772;9.154;2023-12-04T06:13:42;97807.31;;;-3.26;96.41
18850;BME280;4989;48.772;9.154;2023-12-04T06:18:44;97806.88;;;-3.28;97.69
18850;BME280;4989;48.772;9.154;2023-12-04T06:23:47;97798.53;;;-3.02;95.96
18850;BME280;4989;48.772;9.154;2023-12-04T06:28:50;97786.25;;;-2.79;93.40
18850;BME280;4989;48.772;9.154;2023-12-04T06:33:53;97793.19;;;-2.62;92.34
18850;BME280;4989;48.772;9.154;2023-12-04T06:38:56;97777.03;;;-2.69;93.14
18850;BME280;4989;48.772;9.154;2023-12-04T06:44:01;97778.22;;;-2.54;91.22
18850;BME280;4989;48.772;9.154;2023-12-04T06:49:05;97763.00;;;-2.82;94.22
18850;BME280;4989;48.772;9.154;2023-12-04T06:54:11;97772.38;;;-3.00;96.62
18850;BME280;4989;48.772;9.154;2023-12-04T06:59:17;97766.09;;;-3.08;97.91
18850;BME280;4989;48.772;9.154;2023-12-04T07:04:20;97776.84;;;-2.48;95.06
18850;BME280;4989;48.772;9.154;2023-12-04T07:09:24;97765.72;;;-2.06;92.50
18850;BME280;4989;48.772;9.154;2023-12-04T07:14:27;97766.06;;;-2.23;89.73
18850;BME280;4989;48.772;9.154;2023-12-04T07:19:29;97754.09;;;-2.45;91.28
18850;BME280;4989;48.772;9.154;2023-12-04T07:24:33;97749.44;;;-2.48;90.96
18850;BME280;4989;48.772;9.154;2023-12-04T07:29:36;97741.81;;;-2.50;91.21
18850;BME280;4989;48.772;9.154;2023-12-04T07:34:40;97743.66;;;-2.07;91.97
18850;BME280;4989;48.772;9.154;2023-12-04T07:39:44;97740.47;;;-2.12;89.00
18850;BME280;4989;48.772;9.154;2023-12-04T07:44:48;97729.44;;;-2.58;91.27
18850;BME280;4989;48.772;9.154;2023-12-04T07:49:51;97745.00;;;-2.60;91.40
18850;BME280;4989;48.772;9.154;2023-12-04T07:54:54;97727.91;;;-2.59;92.36
18850;BME280;4989;48.772;9.154;2023-12-04T07:59:57;97721.25;;;-2.21;89.70
18850;BME280;4989;48.772;9.154;2023-12-04T08:05:00;97729.84;;;-1.96;90.04
18850;BME280;4989;48.772;9.154;2023-12-04T08:10:02;97742.69;;;-1.82;88.34
18850;BME280;4989;48.772;9.154;2023-12-04T08:15:06;97723.50;;;-2.23;89.79
18850;BME280;4989;48.772;9.154;2023-12-04T08:20:09;97722.72;;;-2.08;91.83
18850;BME280;4989;48.772;9.154;2023-12-04T08:25:25;97696.22;;;-1.85;89.33
18850;BME280;4989;48.772;9.154;2023-12-04T08:30:28;97702.66;;;-1.70;88.61
18850;BME280;4989;48.772;9.154;2023-12-04T08:35:31;97684.16;;;-1.63;87.06
18850;BME280;4989;48.772;9.154;2023-12-04T08:40:34;97689.91;;;-1.96;87.92
18850;BME280;4989;48.772;9.154;2023-12-04T08:45:36;97683.56;;;-2.08;88.91
18850;BME280;4989;48.772;9.154;2023-12-04T08:50:39;97687.25;;;-2.12;90.33
18850;BME280;4989;48.772;9.154;2023-12-04T08:55:42;97683.97;;;-1.90;89.55
18850;BME280;4989;48.772;9.154;2023-12-04T09:00:45;97677.41;;;-1.76;89.93
18850;BME280;4989;48.772;9.154;2023-12-04T09:05:48;97694.41;;;-1.46;89.70
18850;BME280;4989;48.772;9.154;2023-12-04T09:10:53;97699.03;;;-1.62;88.58
18850;BME280;4989;48.772;9.154;2023-12-04T09:16:16;97686.25;;;-1.88;91.93
18850;BME280;4989;48.772;9.154;2023-12-04T09:21:19;97685.72;;;-1.62;90.82
18850;BME280;4989;48.772;9.154;2023-12-04T09:26:22;97680.81;;;-1.21;88.75
18850;BME280;4989;48.772;9.154;2023-12-04T09:31:25;97675.06;;;-1.43;89.24
18850;BME280;4989;48.772;9.154;2023-12-04T09:36:28;97671.03;;;-1.17;89.61
18850;BME280;4989;48.772;9.154;2023-12-04T09:41:33;97669.38;;;-1.61;93.26
18850;BME280;4989;48.772;9.154;2023-12-04T09:46:36;97663.00;;;-1.36;93.44
18850;BME280;4989;48.772;9.154;2023-12-04T09:51:40;97663.69;;;-1.01;92.45
18850;BME280;4989;48.772;9.154;2023-12-04T09:56:44;97662.59;;;-1.00;90.75
18850;BME280;4989;48.772;9.154;2023-12-04T10:01:46;97679.22;;;-1.26;94.85
18850;BME280;4989;48.772;9.154;2023-12-04T10:06:51;97642.91;;;-0.72;91.59
18850;BME280;4989;48.772;9.154;2023-12-04T10:11:57;97652.59;;;-0.83;92.00
18850;BME280;4989;48.772;9.154;2023-12-04T10:17:00;97639.09;;;-0.71;92.70
18850;BME280;4989;48.772;9.154;2023-12-04T10:22:15;97645.66;;;-0.88;94.73
18850;BME280;4989;48.772;9.154;2023-12-04T10:27:18;97636.25;;;-0.59;93.67
18850;BME280;4989;48.772;9.154;2023-12-04T10:32:23;97627.81;;;-0.61;94.16
18850;BME280;4989;48.772;9.154;2023-12-04T10:37:25;97621.19;;;-0.71;96.28
18850;BME280;4989;48.772;9.154;2023-12-04T10:42:31;97600.31;;;-0.65;97.03
18850;BME280;4989;48.772;9.154;2023-12-04T10:47:34;97582.66;;;-0.73;98.80
18850;BME280;4989;48.772;9.154;2023-12-04T10:52:39;97574.53;;;-0.57;99.13
18850;BME280;4989;48.772;9.154;2023-12-04T10:57:43;97572.06;;;0.10;97.43
18850;BME280;4989;48.772;9.154;2023-12-04T11:02:48;97557.69;;;0.22;94.72
18850;BME280;4989;48.772;9.154;2023-12-04T11:07:54;97542.06;;;0.95;92.89
18850;BME280;4989;48.772;9.154;2023-12-04T11:13:27;97547.00;;;1.37;87.96
18850;BME280;4989;48.772;9.154;2023-12-04T11:18:36;97561.91;;;1.38;86.19
18850;BME280;4989;48.772;9.154;2023-12-04T11:23:43;97540.16;;;0.58;91.38
18850;BME280;4989;48.772;9.154;2023-12-04T11:28:46;97530.44;;;0.39;94.03
18850;BME280;4989;48.772;9.154;2023-12-04T11:33:50;97527.47;;;0.18;97.88
18850;BME280;4989;48.772;9.154;2023-12-04T11:38:53;97514.69;;;0.31;99.23
18850;BME280;4989;48.772;9.154;2023-12-04T11:43:56;97508.47;;;0.23;100.00
18850;BME280;4989;48.772;9.154;2023-12-04T11:54:58;97469.19;;;0.64;100.00
18850;BME280;4989;48.772;9.154;2023-12-04T12:00:21;97450.22;;;0.80;99.53
18850;BME280;4989;48.772;9.154;2023-12-04T12:05:25;97440.56;;;1.20;96.80
18850;BME280;4989;48.772;9.154;2023-12-04T12:10:29;97430.00;;;1.42;96.04
18850;BME280;4989;48.772;9.154;2023-12-04T12:15:35;97434.75;;;1.73;89.71
18850;BME280;4989;48.772;9.154;2023-12-04T12:20:38;97426.66;;;1.63;90.39
18850;BME280;4989;48.772;9.154;2023-12-04T12:25:40;97411.03;;;1.75;89.67
18850;BME280;4989;48.772;9.154;2023-12-04T12:30:44;97387.72;;;1.87;87.80
18850;BME280;4989;48.772;9.154;2023-12-04T12:35:48;97390.25;;;1.47;89.30
18850;BME280;4989;48.772;9.154;2023-12-04T12:41:07;97395.53;;;1.33;91.47
18850;BME280;4989;48.772;9.154;2023-12-04T12:46:11;97378.44;;;1.52;91.46
18850;BME280;4989;48.772;9.154;2023-12-04T12:51:14;97386.91;;;1.75;90.99
18850;BME280;4989;48.772;9.154;2023-12-04T12:56:17;97381.91;;;1.63;87.44
18850;BME280;4989;48.772;9.154;2023-12-04T13:01:22;97363.88;;;1.46;90.06
18850;BME280;4989;48.772;9.154;2023-12-04T13:06:25;97361.97;;;1.50;91.46
18850;BME280;4989;48.772;9.154;2023-12-04T13:11:30;97360.34;;;1.27;98.92
18850;BME280;4989;48.772;9.154;2023-12-04T13:16:33;97351.53;;;1.23;100.00
18850;BME280;4989;48.772;9.154;2023-12-04T13:21:36;97334.25;;;1.06;99.88
18850;BME280;4989;48.772;9.154;2023-12-04T13:26:38;97320.81;;;0.96;100.00
18850;BME280;4989;48.772;9.154;2023-12-04T13:31:42;97314.47;;;0.63;100.00
18850;BME280;4989;48.772;9.154;2023-12-04T13:36:44;97320.13;;;0.51;100.00
18850;BME280;4989;48.772;9.154;2023-12-04T13:41:47;97318.09;;;0.33;100.00
18850;BME280;4989;48.772;9.154;2023-12-04T13:47:08;97314.75;;;0.43;100.00
18850;BME280;4989;48.772;9.154;2023-12-04T13:52:11;97303.91;;;0.22;100.00
18850;BME280;4989;48.772;9.154;2023-12-04T13:57:14;97300.03;;;0.16;100.00
18850;BME280;4989;48.772;9.154;2023-12-04T14:02:46;97294.00;;;0.26;100.00
18850;BME280;4989;48.772;9.154;2023-12-04T14:07:49;97298.94;;;0.24;100.00
18850;BME280;4989;48.772;9.154;2023-12-04T14:12:53;97294.50;;;0.42;100.00
18850;BME280;4989;48.772;9.154;2023-12-04T14:17:55;97285.56;;;0.24;100.00
18850;BME280;4989;48.772;9.154;2023-12-04T14:22:58;97269.50;;;0.17;100.00
18850;BME280;4989;48.772;9.154;2023-12-04T14:28:01;97257.44;;;0.41;100.00
18850;BME280;4989;48.772;9.154;2023-12-04T14:33:05;97260.50;;;0.39;100.00
18850;BME280;4989;48.772;9.154;2023-12-04T14:38:07;97263.53;;;0.34;100.00
18850;BME280;4989;48.772;9.154;2023-12-04T14:43:11;97272.66;;;0.33;100.00
18850;BME280;4989;48.772;9.154;2023-12-04T14:48:14;97246.69;;;0.30;100.00
18850;BME280;4989;48.772;9.154;2023-12-04T14:53:17;97228.44;;;0.39;100.00
18850;BME280;4989;48.772;9.154;2023-12-04T14:58:33;97245.38;;;0.61;100.00
18850;BME280;4989;48.772;9.154;2023-12-04T15:03:38;97244.06;;;0.37;100.00
18850;BME280;4989;48.772;9.154;2023-12-04T15:08:50;97229.66;;;0.53;100.00
18850;BME280;4989;48.772;9.154;2023-12-04T15:14:11;97229.94;;;0.37;100.00
18850;BME280;4989;48.772;9.154;2023-12-04T15:19:38;97215.56;;;0.63;100.00
18850;BME280;4989;48.772;9.154;2023-12-04T15:24:59;97191.66;;;0.95;100.00
18850;BME280;4989;48.772;9.154;2023-12-04T15:30:02;97195.91;;;1.14;100.00
18850;BME280;4989;48.772;9.154;2023-12-04T15:35:06;97182.97;;;1.41;100.00
18850;BME280;4989;48.772;9.154;2023-12-04T15:40:15;97161.56;;;1.37;100.00
18850;BME280;4989;48.772;9.154;2023-12-04T15:45:18;97155.47;;;1.55;100.00
18850;BME280;4989;48.772;9.154;2023-12-04T15:50:20;97162.31;;;1.81;100.00
18850;BME280;4989;48.772;9.154;2023-12-04T15:55:25;97176.13;;;1.54;100.00
18850;BME280;4989;48.772;9.154;2023-12-04T16:00:30;97182.94;;;1.23;100.00
18850;BME280;4989;48.772;9.154;2023-12-04T16:05:33;97160.03;;;1.44;100.00
18850;BME280;4989;48.772;9.154;2023-12-04T16:10:37;97149.22;;;0.94;100.00
18850;BME280;4989;48.772;9.154;2023-12-04T16:15:40;97142.41;;;1.39;100.00
18850;BME280;4989;48.772;9.154;2023-12-04T16:20:44;97140.13;;;1.23;100.00
18850;BME280;4989;48.772;9.154;2023-12-04T16:25:49;97146.19;;;0.99;100.00
18850;BME280;4989;48.772;9.154;2023-12-04T16:30:51;97140.47;;;1.11;100.00
18850;BME280;4989;48.772;9.154;2023-12-04T16:35:58;97139.72;;;1.03;100.00
18850;BME280;4989;48.772;9.154;2023-12-04T16:41:01;97124.78;;;1.02;100.00
18850;BME280;4989;48.772;9.154;2023-12-04T16:46:04;97130.13;;;1.06;100.00
18850;BME280;4989;48.772;9.154;2023-12-04T16:51:07;97121.31;;;0.87;100.00
18850;BME280;4989;48.772;9.154;2023-12-04T16:56:12;97102.59;;;0.87;100.00
18850;BME280;4989;48.772;9.154;2023-12-04T17:01:15;97091.13;;;0.76;100.00
18850;BME280;4989;48.772;9.154;2023-12-04T17:06:18;97096.53;;;0.98;100.00
18850;BME280;4989;48.772;9.154;2023-12-04T17:11:21;97093.44;;;1.03;100.00
18850;BME280;4989;48.772;9.154;2023-12-04T17:16:24;97090.44;;;1.15;100.00
18850;BME280;4989;48.772;9.154;2023-12-04T17:21:30;97088.13;;;1.06;100.00
18850;BME280;4989;48.772;9.154;2023-12-04T17:26:34;97071.31;;;1.13;100.00
18850;BME280;4989;48.772;9.154;2023-12-04T17:31:37;97067.47;;;1.50;100.00
18850;BME280;4989;48.772;9.154;2023-12-04T17:36:41;97061.34;;;1.67;100.00
18850;BME280;4989;48.772;9.154;2023-12-04T17:41:44;97053.72;;;1.41;100.00
18850;BME280;4989;48.772;9.154;2023-12-04T17:46:50;97035.25;;;1.93;100.00
18850;BME280;4989;48.772;9.154;2023-12-04T17:51:53;97034.50;;;1.92;100.00
18850;BME280;4989;48.772;9.154;2023-12-04T17:56:56;97020.69;;;2.04;100.00
18850;BME280;4989;48.772;9.154;2023-12-04T18:01:58;97026.13;;;1.79;100.00
18850;BME280;4989;48.772;9.154;2023-12-04T18:07:01;97021.88;;;1.93;100.00
18850;BME280;4989;48.772;9.154;2023-12-04T18:12:06;97018.03;;;2.01;100.00
18850;BME280;4989;48.772;9.154;2023-12-04T18:17:09;97016.81;;;2.16;100.00
18850;BME280;4989;48.772;9.154;2023-12-04T18:22:11;96996.91;;;2.14;100.00
18850;BME280;4989;48.772;9.154;2023-12-04T18:27:15;96989.97;;;2.23;100.00
18850;BME280;4989;48.772;9.154;2023-12-04T18:32:18;96985.31;;;2.38;100.00
18850;BME280;4989;48.772;9.154;2023-12-04T18:37:27;96983.00;;;2.40;98.59
18850;BME280;4989;48.772;9.154;2023-12-04T18:42:34;96979.91;;;2.42;97.79
18850;BME280;4989;48.772;9.154;2023-12-04T18:47:39;96978.84;;;2.28;98.45
18850;BME280;4989;48.772;9.154;2023-12-04T18:52:45;96984.81;;;2.54;97.52
18850;BME280;4989;48.772;9.154;2023-12-04T18:57:47;96975.13;;;2.74;96.15
18850;BME280;4989;48.772;9.154;2023-12-04T19:02:51;96957.44;;;2.81;95.50
18850;BME280;4989;48.772;9.154;2023-12-04T19:07:54;96980.44;;;2.82;94.29
18850;BME280;4989;48.772;9.154;2023-12-04T19:12:57;96977.44;;;2.72;94.76
18850;BME280;4989;48.772;9.154;2023-12-04T19:18:00;96961.78;;;2.64;95.72
18850;BME280;4989;48.772;9.154;2023-12-04T19:23:03;96961.69;;;2.74;94.94
18850;BME280;4989;48.772;9.154;2023-12-04T19:28:06;96945.69;;;2.64;93.93
18850;BME280;4989;48.772;9.154;2023-12-04T19:33:09;96954.56;;;2.53;93.65
18850;BME280;4989;48.772;9.154;2023-12-04T19:38:23;96948.22;;;2.33;95.81
18850;BME280;4989;48.772;9.154;2023-12-04T19:43:26;96941.00;;;2.19;97.08
18850;BME280;4989;48.772;9.154;2023-12-04T19:48:28;96937.03;;;2.45;96.41
18850;BME280;4989;48.772;9.154;2023-12-04T19:53:31;96939.38;;;2.36;96.46
18850;BME280;4989;48.772;9.154;2023-12-04T19:58:33;96935.97;;;2.28;99.39
18850;BME280;4989;48.772;9.154;2023-12-04T20:03:39;96928.69;;;2.29;100.00
18850;BME280;4989;48.772;9.154;2023-12-04T20:08:42;96921.84;;;2.24;100.00
18850;BME280;4989;48.772;9.154;2023-12-04T20:13:45;96920.13;;;2.52;99.99
18850;BME280;4989;48.772;9.154;2023-12-04T20:18:48;96920.53;;;2.47;99.72
18850;BME280;4989;48.772;9.154;2023-12-04T20:23:53;96915.53;;;2.49;100.00
18850;BME280;4989;48.772;9.154;2023-12-04T20:28:56;96904.13;;;2.38;100.00
18850;BME280;4989;48.772;9.154;2023-12-04T20:34:01;96917.19;;;2.28;100.00
18850;BME280;4989;48.772;9.154;2023-12-04T20:39:03;96924.06;;;2.29;100.00
18850;BME280;4989;48.772;9.154;2023-12-04T20:44:06;96917.47;;;2.45;100.00
18850;BME280;4989;48.772;9.154;2023-12-04T20:49:09;96924.53;;;2.77;100.00
18850;BME280;4989;48.772;9.154;2023-12-04T20:54:12;96916.69;;;2.48;100.00
18850;BME280;4989;48.772;9.154;2023-12-04T20:59:15;96925.38;;;2.66;100.00
18850;BME280;4989;48.772;9.154;2023-12-04T21:04:18;96916.25;;;2.53;100.00
18850;BME280;4989;48.772;9.154;2023-12-04T21:09:21;96923.25;;;2.40;100.00
18850;BME280;4989;48.772;9.154;2023-12-04T21:14:24;96914.47;;;2.39;100.00
18850;BME280;4989;48.772;9.154;2023-12-04T21:19:28;96908.53;;;2.62;100.00
18850;BME280;4989;48.772;9.154;2023-12-04T21:24:31;96901.66;;;2.61;100.00
18850;BME280;4989;48.772;9.154;2023-12-04T21:29:34;96902.28;;;2.80;100.00
18850;BME280;4989;48.772;9.154;2023-12-04T21:34:37;96896.22;;;2.68;100.00
18850;BME280;4989;48.772;9.154;2023-12-04T21:39:41;96910.13;;;2.56;100.00
18850;BME280;4989;48.772;9.154;2023-12-04T21:44:44;96900.25;;;2.46;100.00
18850;BME280;4989;48.772;9.154;2023-12-04T21:49:47;96894.81;;;2.53;100.00
18850;BME280;4989;48.772;9.154;2023-12-04T21:54:50;96889.41;;;2.57;100.00
18850;BME280;4989;48.772;9.154;2023-12-04T21:59:52;96881.31;;;2.67;100.00
18850;BME280;4989;48.772;9.154;2023-12-04T22:04:56;96892.44;;;2.62;100.00
18850;BME280;4989;48.772;9.154;2023-12-04T22:09:59;96882.91;;;2.54;100.00
18850;BME280;4989;48.772;9.154;2023-12-04T22:15:01;96868.72;;;2.57;100.00
18850;BME280;4989;48.772;9.154;2023-12-04T22:20:05;96861.81;;;2.63;100.00
18850;BME280;4989;48.772;9.154;2023-12-04T22:25:08;96865.25;;;2.60;100.00
18850;BME280;4989;48.772;9.154;2023-12-04T22:30:14;96858.63;;;2.75;100.00
18850;BME280;4989;48.772;9.154;2023-12-04T22:35:17;96868.63;;;2.71;100.00
18850;BME280;4989;48.772;9.154;2023-12-04T22:40:20;96852.59;;;2.64;100.00
18850;BME280;4989;48.772;9.154;2023-12-04T22:45:24;96855.66;;;2.66;100.00
18850;BME280;4989;48.772;9.154;2023-12-04T22:50:26;96861.53;;;2.92;100.00
18850;BME280;4989;48.772;9.154;2023-12-04T22:55:29;96850.66;;;3.06;100.00
18850;BME280;4989;48.772;9.154;2023-12-04T23:00:32;96852.38;;;3.27;100.00
18850;BME280;4989;48.772;9.154;2023-12-04T23:05:35;96853.06;;;2.97;100.00
18850;BME280;4989;48.772;9.154;2023-12-04T23:10:37;96858.56;;;2.83;100.00
18850;BME280;4989;48.772;9.154;2023-12-04T23:15:40;96861.16;;;2.90;100.00
18850;BME280;4989;48.772;9.154;2023-12-04T23:20:43;96861.91;;;2.94;100.00
18850;BME280;4989;48.772;9.154;2023-12-04T23:25:46;96857.75;;;2.86;100.00
18850;BME280;4989;48.772;9.154;2023-12-04T23:30:49;96861.91;;;2.94;100.00
18850;BME280;4989;48.772;9.154;2023-12-04T23:35:52;96854.56;;;2.98;100.00
18850;BME280;4989;48.772;9.154;2023-12-04T23:40:55;96849.22;;;2.98;100.00
18850;BME280;4989;48.772;9.154;2023-12-04T23:45:58;96849.28;;;2.87;100.00
18850;BME280;4989;48.772;9.154;2023-12-04T23:51:00;96854.34;;;2.82;100.00
18850;BME280;4989;48.772;9.154;2023-12-04T23:56:03;96836.28;;;2.86;100.00
